Time;durP1;ratioP1;P1;durP2;ratioP2;P2;SDS_P1;SDS_P2;PMS_P1;PMS_P2;Temp;Humidity;BMP_temperature;BMP_pressure;BME280_temperature;BME280_humidity;BME280_pressure;Samples;Min_cycle;Max_cycle;Signal;HPM_P1;HPM_P2
2023/04/01 00:01:57;;;;;;;;;2.67;0.00;;;;;13.11;100.00;99985.78;5016739;28;45293;-73
2023/04/01 00:04:23;;;;;;;;;0.33;0.00;;;;;13.11;100.00;99972.53;5006912;28;45795;-72
2023/04/01 00:06:48;;;;;;;;;2.00;0.00;;;;;13.09;100.00;99973.41;5015859;28;45532;-74
2023/04/01 00:09:14;;;;;;;;;0.00;0.00;;;;;13.08;100.00;99980.50;5014971;28;51538;-72
2023/04/01 00:11:40;;;;;;;;;0.00;0.00;;;;;13.09;100.00;99987.53;5017336;28;45511;-72
2023/04/01 00:14:06;;;;;;;;;1.00;0.00;;;;;13.13;100.00;99984.88;5013137;28;46357;-72
2023/04/01 00:16:31;;;;;;;;;0.00;0.00;;;;;13.14;100.00;99983.97;5015923;28;45362;-72
2023/04/01 00:18:57;;;;;;;;;3.00;0.00;;;;;13.15;100.00;99985.72;5017050;28;45428;-72
2023/04/01 00:21:22;;;;;;;;;0.00;0.00;;;;;13.17;100.00;99983.94;5014424;28;45421;-72
2023/04/01 00:23:49;;;;;;;;;0.00;0.00;;;;;13.14;100.00;99987.50;5007139;28;47292;-72
2023/04/01 00:26:18;;;;;;;;;0.00;0.00;;;;;13.11;100.00;99979.59;5009923;28;45309;-75
2023/04/01 00:28:44;;;;;;;;;0.00;0.00;;;;;13.08;100.00;99987.56;5012551;28;45484;-72
2023/04/01 00:31:14;;;;;;;;;0.00;0.00;;;;;13.05;100.00;99980.56;5007888;28;45230;-73
2023/04/01 00:33:40;;;;;;;;;1.00;0.00;;;;;13.02;100.00;99990.31;5008970;28;47642;-73
2023/04/01 00:36:11;;;;;;;;;1.00;0.00;;;;;13.00;100.00;99993.00;5004943;28;46548;-72
2023/04/01 00:38:37;;;;;;;;;0.00;0.00;;;;;13.00;100.00;99981.50;5005958;28;45299;-73
2023/04/01 00:41:04;;;;;;;;;0.00;0.00;;;;;12.96;100.00;99983.31;4989429;28;45456;-72
2023/04/01 00:43:30;;;;;;;;;0.00;0.00;;;;;13.00;100.00;99995.63;5009280;28;45389;-72
2023/04/01 00:45:56;;;;;;;;;1.00;0.00;;;;;13.01;100.00;100000.03;5000964;28;45294;-72
2023/04/01 00:48:30;;;;;;;;;0.00;0.00;;;;;13.01;100.00;100005.34;5005030;28;45351;-72
2023/04/01 00:51:06;;;;;;;;;0.00;0.00;;;;;13.01;100.00;99986.78;5006965;28;45467;-72
2023/04/01 00:53:33;;;;;;;;;1.00;0.00;;;;;13.01;100.00;99988.56;5013638;28;46386;-73
2023/04/01 00:56:06;;;;;;;;;0.00;0.00;;;;;13.00;100.00;99992.13;5016287;28;45357;-72
2023/04/01 00:58:35;;;;;;;;;0.00;0.00;;;;;12.96;100.00;99980.66;5013396;28;45476;-73
2023/04/01 01:01:00;;;;;;;;;1.00;0.00;;;;;12.96;100.00;99987.75;4991800;28;45672;-72
2023/04/01 01:03:26;;;;;;;;;3.00;0.00;;;;;12.92;100.00;99988.66;5012591;28;45504;-72
2023/04/01 01:05:59;;;;;;;;;0.00;0.00;;;;;12.92;100.00;99986.88;5007249;28;45313;-72
2023/04/01 01:08:47;;;;;;;;;0.00;0.00;;;;;12.90;100.00;99980.75;5012193;28;45441;-72
2023/04/01 01:11:14;;;;;;;;;0.00;0.00;;;;;12.89;100.00;99992.25;4994282;28;45472;-74
2023/04/01 01:13:56;;;;;;;;;0.00;0.00;;;;;12.90;100.00;99995.75;5014603;28;45982;-74
2023/04/01 01:16:30;;;;;;;;;2.00;0.00;;;;;12.86;100.00;99986.97;4986226;28;45337;-72
2023/04/01 01:19:52;;;;;;;;;0.00;0.00;;;;;12.81;100.00;99991.44;5000686;28;45521;-72
2023/04/01 01:22:37;;;;;;;;;0.00;0.00;;;;;12.78;100.00;99984.41;4940162;28;45525;-73
2023/04/01 01:25:08;;;;;;;;;0.00;0.00;;;;;12.75;100.00;99995.03;4939200;28;45594;-72
2023/04/01 01:27:34;;;;;;;;;0.67;0.00;;;;;12.71;100.00;99977.41;4998947;28;45225;-73
2023/04/01 01:30:20;;;;;;;;;0.33;0.00;;;;;12.72;100.00;99973.00;5008417;28;45436;-73
2023/04/01 01:32:48;;;;;;;;;2.33;0.00;;;;;12.74;100.00;99971.22;5011997;28;45523;-73
2023/04/01 01:35:51;;;;;;;;;2.67;0.00;;;;;12.74;100.00;99984.47;5006888;28;45847;-72
2023/04/01 01:38:20;;;;;;;;;0.00;0.00;;;;;12.73;100.00;99977.38;5001421;28;45622;-73
2023/04/01 01:40:51;;;;;;;;;0.00;0.00;;;;;12.73;100.00;99985.34;4988401;28;45452;-73
2023/04/01 01:43:21;;;;;;;;;0.00;0.00;;;;;12.74;100.00;99984.47;4985209;28;45264;-73
2023/04/01 01:45:50;;;;;;;;;2.33;0.00;;;;;12.77;100.00;99995.88;4998506;28;47608;-72
2023/04/01 01:48:17;;;;;;;;;0.00;0.00;;;;;12.78;100.00;99986.16;4999188;28;45500;-72
2023/04/01 01:50:44;;;;;;;;;0.67;0.00;;;;;12.80;100.00;99997.63;5003072;28;45512;-72
2023/04/01 01:53:12;;;;;;;;;1.00;0.00;;;;;12.76;100.00;99985.31;4995028;28;45592;-72
2023/04/01 01:55:42;;;;;;;;;0.00;0.00;;;;;12.71;100.00;100008.31;5012139;28;46802;-72
2023/04/01 01:58:23;;;;;;;;;0.00;0.00;;;;;12.68;100.00;99988.06;5012828;28;45515;-72
2023/04/01 02:00:52;;;;;;;;;0.00;0.00;;;;;12.65;100.00;99997.81;5011727;28;45226;-72
2023/04/01 02:03:20;;;;;;;;;0.00;0.00;;;;;12.66;100.00;99996.91;4991357;28;45604;-73
2023/04/01 02:05:45;;;;;;;;;0.00;0.00;;;;;12.64;100.00;100004.88;4991547;28;46593;-72
2023/04/01 02:08:18;;;;;;;;;0.00;0.00;;;;;12.64;100.00;99998.72;5005032;28;45391;-73
2023/04/01 02:10:52;;;;;;;;;0.00;0.00;;;;;12.64;100.00;100004.00;5006663;28;45486;-72
2023/04/01 02:13:23;;;;;;;;;1.00;0.00;;;;;12.63;100.00;100004.91;4997581;28;45533;-74
2023/04/01 02:15:52;;;;;;;;;1.33;0.00;;;;;12.65;100.00;100006.63;4987954;28;46433;-72
2023/04/01 02:18:19;;;;;;;;;1.00;0.00;;;;;12.61;100.00;100019.91;5009252;28;46634;-73
2023/04/01 02:20:45;;;;;;;;;1.00;0.00;;;;;12.56;100.00;100034.06;5015819;28;45435;-73
2023/04/01 02:23:10;;;;;;;;;0.33;0.00;;;;;12.52;100.00;100008.53;5003540;28;45570;-73
2023/04/01 02:25:37;;;;;;;;;1.00;0.00;;;;;12.50;100.00;100020.03;5010835;28;47434;-72
2023/04/01 02:28:05;;;;;;;;;1.00;0.00;;;;;12.50;100.00;100007.66;5008132;28;45437;-72
2023/04/01 02:30:32;;;;;;;;;0.00;0.00;;;;;12.52;100.00;100019.13;4989485;28;45274;-72
2023/04/01 02:32:58;;;;;;;;;2.00;0.00;;;;;12.53;100.00;100012.94;5006791;28;45598;-72
2023/04/01 02:35:25;;;;;;;;;0.00;0.00;;;;;12.57;100.00;100014.66;4989926;28;46373;-72
2023/04/01 02:37:53;;;;;;;;;0.00;0.00;;;;;12.59;100.00;100023.47;5001901;28;45369;-72
2023/04/01 02:40:18;;;;;;;;;0.33;0.00;;;;;12.62;100.00;100021.66;4986015;28;45402;-73
2023/04/01 02:42:44;;;;;;;;;0.00;0.00;;;;;12.63;100.00;100018.16;4982317;28;45472;-72
2023/04/01 02:45:10;;;;;;;;;0.33;0.00;;;;;12.64;100.00;100018.13;5015014;28;45536;-72
2023/04/01 02:47:36;;;;;;;;;2.00;0.00;;;;;12.66;100.00;100029.56;5015279;28;45353;-72
2023/04/01 02:50:02;;;;;;;;;7.33;0.00;;;;;12.67;100.00;100020.72;5006770;28;45234;-72
2023/04/01 02:52:28;;;;;;;;;2.00;0.00;;;;;12.68;100.00;100022.50;5013708;28;45433;-72
2023/04/01 02:54:54;;;;;;;;;4.00;0.00;;;;;12.71;100.00;100026.88;5018479;28;45692;-72
2023/04/01 02:57:20;;;;;;;;;1.00;0.00;;;;;12.68;100.00;100027.78;5006731;28;45457;-73
2023/04/01 02:59:46;;;;;;;;;1.33;0.00;;;;;12.70;100.00;100030.41;5018034;28;45295;-72
2023/04/01 03:02:11;;;;;;;;;1.33;0.00;;;;;12.71;100.00;100026.88;5004913;28;45288;-72
2023/04/01 03:04:37;;;;;;;;;2.00;0.00;;;;;12.71;100.00;100037.47;5013899;28;56996;-72
2023/04/01 03:07:02;;;;;;;;;0.00;0.00;;;;;12.72;100.00;100037.44;4998442;28;59915;-72
2023/04/01 03:09:28;;;;;;;;;0.00;0.00;;;;;12.73;100.00;100040.97;5010583;28;45437;-72
2023/04/01 03:11:54;;;;;;;;;0.00;0.00;;;;;12.73;100.00;100040.97;5014342;28;45700;-72
2023/04/01 03:14:19;;;;;;;;;0.00;0.00;;;;;12.76;100.00;100040.94;5016044;28;46462;-73
2023/04/01 03:16:45;;;;;;;;;0.33;0.00;;;;;12.73;100.00;100054.22;5002378;28;45464;-72
2023/04/01 03:19:10;;;;;;;;;0.00;0.00;;;;;12.76;100.00;100057.72;5010836;28;45350;-72
2023/04/01 03:21:35;;;;;;;;;0.00;0.00;;;;;12.74;100.00;100042.75;5016771;28;50714;-72
2023/04/01 03:24:01;;;;;;;;;0.00;0.00;;;;;12.73;100.00;100056.84;5009784;28;47516;-72
2023/04/01 03:26:29;;;;;;;;;4.00;0.00;;;;;12.73;100.00;100051.56;5014139;28;45285;-73
2023/04/01 03:28:55;;;;;;;;;0.00;0.00;;;;;12.72;100.00;100063.06;5012308;28;45369;-72
2023/04/01 03:31:20;;;;;;;;;0.33;0.00;;;;;12.70;100.00;100068.38;5007662;28;45404;-72
2023/04/01 03:33:45;;;;;;;;;1.00;0.00;;;;;12.69;100.00;100061.34;5009217;28;45339;-74
2023/04/01 03:36:12;;;;;;;;;2.33;0.00;;;;;12.67;100.00;100073.69;5004442;28;58656;-72
2023/04/01 03:38:39;;;;;;;;;1.00;0.00;;;;;12.65;100.00;100059.59;5005025;28;45297;-72
2023/04/01 03:41:05;;;;;;;;;0.00;0.00;;;;;12.66;100.00;100068.41;5012381;28;45541;-74
2023/04/01 03:43:30;;;;;;;;;0.00;0.00;;;;;12.66;100.00;100068.41;5011405;28;45911;-72
2023/04/01 03:45:57;;;;;;;;;0.00;0.00;;;;;12.65;100.00;100071.97;4999784;28;67429;-72
2023/04/01 03:48:23;;;;;;;;;0.00;0.00;;;;;12.67;100.00;100070.16;5008154;28;45489;-72
2023/04/01 03:50:48;;;;;;;;;0.00;0.00;;;;;12.69;100.00;100063.97;5016789;28;45267;-72
2023/04/01 03:53:15;;;;;;;;;3.67;0.00;;;;;12.68;100.00;100066.66;5015592;28;56920;-72
2023/04/01 03:55:40;;;;;;;;;0.67;0.00;;;;;12.69;100.00;100068.41;4997468;28;45309;-72
2023/04/01 03:58:06;;;;;;;;;0.00;0.00;;;;;12.69;100.00;100077.22;5014275;28;45282;-74
2023/04/01 04:00:32;;;;;;;;;0.67;0.00;;;;;12.69;100.00;100076.34;5008669;28;45283;-73
2023/04/01 04:02:57;;;;;;;;;3.00;0.00;;;;;12.72;100.00;100071.88;5011419;28;46195;-72
2023/04/01 04:05:24;;;;;;;;;1.00;0.00;;;;;12.74;100.00;100082.47;5005027;28;45458;-72
2023/04/01 04:07:49;;;;;;;;;0.33;0.00;;;;;12.75;100.00;100086.88;5012255;28;45404;-73
2023/04/01 04:10:15;;;;;;;;;2.33;0.00;;;;;12.74;100.00;100077.19;5011439;28;45213;-73
2023/04/01 04:12:40;;;;;;;;;3.33;0.00;;;;;12.73;100.00;100078.97;5008427;28;45594;-72
2023/04/01 04:15:07;;;;;;;;;0.67;0.00;;;;;12.75;100.00;100079.81;5012186;28;52624;-72
2023/04/01 04:17:32;;;;;;;;;0.00;0.00;;;;;12.76;100.00;100084.19;5007031;28;45246;-72
2023/04/01 04:19:57;;;;;;;;;1.00;0.00;;;;;12.75;100.00;100086.88;5001552;28;45592;-72
2023/04/01 04:22:23;;;;;;;;;1.00;0.00;;;;;12.75;100.00;100092.19;5009448;28;68702;-73
2023/04/01 04:24:48;;;;;;;;;1.00;0.00;;;;;12.73;100.00;100094.84;5003907;28;45330;-72
2023/04/01 04:27:13;;;;;;;;;0.00;0.00;;;;;12.72;100.00;100073.66;5017263;28;52206;-74
2023/04/01 04:29:39;;;;;;;;;0.00;0.00;;;;;12.75;100.00;100093.06;5006684;28;56191;-74
2023/04/01 04:32:04;;;;;;;;;0.00;0.00;;;;;12.76;100.00;100091.28;5008403;28;45730;-72
2023/04/01 04:34:30;;;;;;;;;1.00;0.00;;;;;12.79;100.00;100080.66;5004820;28;45452;-73
2023/04/01 04:36:55;;;;;;;;;1.00;0.00;;;;;12.76;100.00;100089.50;5005147;28;52750;-72
2023/04/01 04:39:21;;;;;;;;;2.00;0.00;;;;;12.76;100.00;100089.50;5001341;28;45515;-73
2023/04/01 04:41:46;;;;;;;;;1.00;0.00;;;;;12.75;100.00;100098.34;5002134;28;45293;-73
2023/04/01 04:44:11;;;;;;;;;0.00;0.00;;;;;12.77;100.00;100101.84;5000379;28;45310;-73
2023/04/01 04:46:39;;;;;;;;;0.00;0.00;;;;;12.76;100.00;100107.16;4998229;28;45503;-72
2023/04/01 04:49:04;;;;;;;;;0.00;0.00;;;;;12.77;100.00;100101.84;5014786;28;45227;-72
2023/04/01 04:51:30;;;;;;;;;2.00;0.00;;;;;12.79;100.00;100101.84;5015955;28;47517;-74
2023/04/01 04:53:55;;;;;;;;;0.00;0.00;;;;;12.82;100.00;100112.41;5011797;28;45398;-72
2023/04/01 04:56:22;;;;;;;;;0.00;0.00;;;;;12.81;100.00;100103.59;5014821;28;46403;-73
2023/04/01 04:58:48;;;;;;;;;3.33;0.00;;;;;12.82;100.00;100102.69;5013111;28;45445;-73
2023/04/01 05:01:15;;;;;;;;;0.00;0.00;;;;;12.83;100.00;100111.50;5011017;28;45679;-73
2023/04/01 05:03:41;;;;;;;;;0.00;0.00;;;;;12.82;100.00;100115.06;5009524;28;45543;-74
2023/04/01 05:06:08;;;;;;;;;0.33;0.00;;;;;12.81;100.00;100098.28;5013413;28;45579;-72
2023/04/01 05:08:33;;;;;;;;;0.00;0.00;;;;;12.81;100.00;100108.88;5002377;28;45452;-72
2023/04/01 05:11:00;;;;;;;;;0.00;0.00;;;;;12.80;100.00;100117.72;5006581;28;46311;-72
2023/04/01 05:13:26;;;;;;;;;2.33;0.00;;;;;12.80;100.00;100117.72;5003294;28;45502;-73
2023/04/01 05:15:51;;;;;;;;;0.00;0.00;;;;;12.84;100.00;100131.84;5007034;28;45268;-72
2023/04/01 05:18:17;;;;;;;;;0.00;0.00;;;;;12.84;100.00;100124.75;4984047;28;45371;-73
2023/04/01 05:20:50;;;;;;;;;0.00;0.00;;;;;12.86;100.00;100137.97;5004017;28;57402;-72
2023/04/01 05:23:16;;;;;;;;;0.00;0.00;;;;;12.84;100.00;100130.06;4997411;28;45301;-72
2023/04/01 05:25:41;;;;;;;;;1.33;0.00;;;;;12.85;100.00;100128.28;5009165;28;45410;-74
2023/04/01 05:28:06;;;;;;;;;2.33;0.00;;;;;12.91;100.00;100135.28;5011428;28;45206;-72
2023/04/01 05:30:32;;;;;;;;;2.00;0.00;;;;;12.88;100.00;100135.31;5010250;28;55586;-73
2023/04/01 05:32:57;;;;;;;;;0.00;0.00;;;;;12.90;100.00;100131.78;5008064;28;60275;-72
2023/04/01 05:35:23;;;;;;;;;0.00;0.00;;;;;12.89;100.00;100134.41;5007240;28;55358;-72
2023/04/01 05:37:49;;;;;;;;;0.00;0.00;;;;;12.89;100.00;100143.28;5004564;28;45380;-72
2023/04/01 05:40:14;;;;;;;;;2.33;0.00;;;;;12.91;100.00;100145.91;5005659;28;47531;-72
2023/04/01 05:42:39;;;;;;;;;0.00;0.00;;;;;12.92;100.00;100152.94;5000084;28;45231;-72
2023/04/01 05:45:06;;;;;;;;;1.00;0.00;;;;;12.89;100.00;100142.38;5003018;28;45476;-72
2023/04/01 05:47:31;;;;;;;;;0.00;0.00;;;;;12.88;100.00;100144.13;5008278;28;45416;-73
2023/04/01 05:49:56;;;;;;;;;2.00;0.00;;;;;12.88;100.00;100152.09;5008165;28;46442;-72
2023/04/01 05:52:22;;;;;;;;;2.00;0.00;;;;;12.88;100.00;100151.22;5016229;28;45258;-74
2023/04/01 05:54:47;;;;;;;;;0.00;0.00;;;;;12.86;100.00;100148.59;5016812;28;47296;-72
2023/04/01 05:57:12;;;;;;;;;1.00;0.00;;;;;12.85;100.00;100153.00;5015568;28;45281;-72
2023/04/01 05:59:38;;;;;;;;;0.00;0.00;;;;;12.86;100.00;100143.28;5018685;28;67971;-72
2023/04/01 06:02:03;;;;;;;;;0.00;0.00;;;;;12.90;100.00;100163.56;5016893;28;45325;-73
2023/04/01 06:04:34;;;;;;;;;1.00;0.00;;;;;12.91;100.00;100167.09;5013134;28;45416;-72
2023/04/01 06:07:00;;;;;;;;;1.00;0.00;;;;;12.92;100.00;100177.66;4995139;28;45536;-73
2023/04/01 06:09:30;;;;;;;;;0.67;0.00;;;;;12.90;100.00;100174.16;5011318;28;52569;-72
2023/04/01 06:12:07;;;;;;;;;2.67;0.00;;;;;12.92;100.00;100182.97;5014854;28;45354;-73
2023/04/01 06:14:33;;;;;;;;;0.00;0.00;;;;;12.95;100.00;100192.69;5016919;28;45445;-72
2023/04/01 06:17:12;;;;;;;;;0.00;0.00;;;;;12.96;100.00;100190.00;5011724;28;46311;-72
2023/04/01 06:20:11;;;;;;;;;0.00;0.00;;;;;12.98;100.00;100196.16;5004108;28;46567;-73
2023/04/01 06:23:19;;;;;;;;;2.00;0.00;;;;;13.00;100.00;100194.41;5002011;28;45373;-72
2023/04/01 06:26:06;;;;;;;;;1.00;0.00;;;;;13.02;100.00;100195.25;5000804;28;45516;-72
2023/04/01 06:29:03;;;;;;;;;0.00;0.00;;;;;13.03;100.00;100204.94;5013808;28;45302;-72
2023/04/01 06:31:46;;;;;;;;;1.00;0.00;;;;;13.00;100.00;100198.81;5011694;28;47589;-72
2023/04/01 06:34:27;;;;;;;;;1.00;0.00;;;;;12.99;100.00;100211.16;5008722;28;45413;-72
2023/04/01 06:37:07;;;;;;;;;0.00;0.00;;;;;13.00;100.00;100209.41;5006448;28;45431;-73
2023/04/01 06:39:53;;;;;;;;;3.00;0.00;;;;;13.01;100.00;100219.13;5004248;28;45431;-72
2023/04/01 06:42:28;;;;;;;;;3.00;0.00;;;;;13.02;100.00;100219.09;5004820;28;45784;-73
2023/04/01 06:44:55;;;;;;;;;0.00;0.00;;;;;13.03;100.00;100212.91;5004035;28;45357;-73
2023/04/01 06:47:34;;;;;;;;;0.00;0.00;;;;;13.03;100.00;100219.97;5001112;28;45438;-74
2023/04/01 06:49:59;;;;;;;;;0.33;0.33;;;;;13.05;100.00;100213.78;4993631;28;45397;-72
2023/04/01 06:52:33;;;;;;;;;0.00;0.00;;;;;13.09;100.00;100219.91;5016832;28;46647;-72
2023/04/01 06:55:02;;;;;;;;;0.00;0.00;;;;;13.13;100.00;100221.66;5015889;28;45571;-73
2023/04/01 06:57:35;;;;;;;;;0.00;0.00;;;;;13.16;100.00;100211.03;4993947;28;45330;-72
2023/04/01 07:00:04;;;;;;;;;1.33;0.00;;;;;13.20;100.00;100214.50;4991566;28;45552;-72
2023/04/01 07:02:41;;;;;;;;;0.33;0.00;;;;;13.27;100.00;100211.84;4993616;28;47520;-72
2023/04/01 07:05:07;;;;;;;;;1.00;0.00;;;;;13.30;100.00;100222.38;5010736;28;45337;-72
2023/04/01 07:07:41;;;;;;;;;1.00;0.00;;;;;13.33;100.00;100221.50;5010323;28;45249;-72
2023/04/01 07:10:32;;;;;;;;;2.00;0.00;;;;;13.34;100.00;100225.91;4990836;28;45572;-72
2023/04/01 07:13:00;;;;;;;;;0.00;0.00;;;;;13.32;100.00;100222.41;5003234;28;47629;-73
2023/04/01 07:15:36;;;;;;;;;0.00;0.00;;;;;13.35;100.00;100235.59;5016861;28;45547;-71
2023/04/01 07:18:05;;;;;;;;;0.00;0.00;;;;;13.35;100.00;100230.31;5017904;28;45468;-73
2023/04/01 07:20:36;;;;;;;;;2.33;0.00;;;;;13.34;100.00;100241.81;5014878;28;45401;-73
2023/04/01 07:23:04;;;;;;;;;0.00;0.00;;;;;13.33;100.00;100242.72;4997632;28;47578;-75
2023/04/01 07:25:46;;;;;;;;;2.00;0.00;;;;;13.30;100.00;100246.25;5007809;28;45479;-75
2023/04/01 07:28:13;;;;;;;;;0.00;0.00;;;;;13.30;100.00;100240.94;5013249;28;45582;-73
2023/04/01 07:30:57;;;;;;;;;0.00;0.00;;;;;13.33;100.00;100234.75;5014021;28;45508;-73
2023/04/01 07:33:29;;;;;;;;;1.00;0.00;;;;;13.34;100.00;100234.72;5008578;28;47489;-73
2023/04/01 07:36:12;;;;;;;;;1.00;0.00;;;;;13.41;100.00;100243.50;5013757;28;45602;-74
2023/04/01 07:38:57;;;;;;;;;3.00;0.00;;;;;13.48;100.00;100239.03;5012104;28;45507;-73
2023/04/01 07:42:01;;;;;;;;;1.00;0.00;;;;;13.53;100.00;100246.03;5012968;28;45431;-73
2023/04/01 07:45:12;;;;;;;;;0.00;0.00;;;;;13.59;100.00;100248.63;4995910;28;47299;-73
2023/04/01 07:47:43;;;;;;;;;0.00;0.00;;;;;13.62;100.00;100243.28;4979734;28;45582;-74
2023/04/01 07:50:30;;;;;;;;;0.00;0.00;;;;;13.64;100.00;100245.94;5002415;28;45659;-72
2023/04/01 07:53:13;;;;;;;;;0.00;0.00;;;;;13.72;100.00;100249.34;5008011;28;45512;-73
2023/04/01 07:55:47;;;;;;;;;0.00;0.00;;;;;13.78;100.00;100259.91;5013561;28;48156;-73
2023/04/01 07:58:52;;;;;;;;;0.00;0.00;;;;;13.82;100.00;100247.50;4993822;28;45663;-73
2023/04/01 08:01:27;;;;;;;;;0.00;0.00;;;;;13.88;100.00;100250.06;5014174;28;45568;-77
2023/04/01 08:04:08;;;;;;;;;0.00;0.00;;;;;13.88;100.00;100256.25;4978549;28;47452;-76
2023/04/01 08:06:51;;;;;;;;;0.00;0.00;;;;;13.81;100.00;100259.00;4994876;28;46308;-76
2023/04/01 08:09:36;;;;;;;;;0.00;0.00;;;;;13.75;100.00;100275.00;5012001;28;46149;-76
2023/04/01 08:12:25;;;;;;;;;0.00;0.00;;;;;13.75;100.00;100267.91;5013374;28;45317;-76
2023/04/01 08:15:09;;;;;;;;;0.00;0.00;;;;;13.79;100.00;100261.66;4993982;28;45318;-77
2023/04/01 08:17:56;;;;;;;;;1.00;0.00;;;;;13.79;100.00;100259.00;5014569;28;46533;-77
2023/04/01 08:20:36;;;;;;;;;0.00;0.00;;;;;13.84;100.00;100265.13;5013119;28;45530;-76
2023/04/01 08:23:04;;;;;;;;;1.00;0.00;;;;;13.87;100.00;100278.38;5011189;28;45583;-76
2023/04/01 08:25:30;;;;;;;;;0.00;0.00;;;;;13.88;100.00;100292.53;5010162;28;45507;-78
2023/04/01 08:28:11;;;;;;;;;1.00;0.00;;;;;13.81;100.00;100286.41;5008285;28;48090;-76
2023/04/01 08:30:53;;;;;;;;;0.00;0.00;;;;;13.72;100.00;100281.19;5004897;28;45516;-76
2023/04/01 08:33:26;;;;;;;;;0.00;0.00;;;;;13.67;100.00;100280.38;4995387;28;45382;-76
2023/04/01 08:36:12;;;;;;;;;0.00;0.00;;;;;13.61;100.00;100286.63;4992894;28;45626;-77
2023/04/01 08:38:50;;;;;;;;;0.00;0.00;;;;;13.59;100.00;100296.38;4992632;28;46703;-77
2023/04/01 08:41:30;;;;;;;;;1.00;0.00;;;;;13.59;100.00;100296.38;5012811;28;45413;-77
2023/04/01 08:44:29;;;;;;;;;0.67;0.00;;;;;13.59;100.00;100298.16;5010241;28;45451;-76
2023/04/01 08:47:19;;;;;;;;;0.67;0.00;;;;;13.56;100.00;100284.91;5004610;28;46135;-76
2023/04/01 08:50:09;;;;;;;;;1.00;0.00;;;;;13.63;100.00;100298.13;5011316;28;47329;-77
2023/04/01 08:53:11;;;;;;;;;1.00;0.00;;;;;13.75;100.00;100299.75;4996127;28;45810;-77
2023/04/01 08:55:44;;;;;;;;;1.67;0.00;;;;;13.86;100.00;100291.69;5012489;28;45570;-77
2023/04/01 08:58:43;;;;;;;;;1.00;0.00;;;;;14.02;100.00;100292.38;4995143;28;45588;-76
2023/04/01 09:01:30;;;;;;;;;2.33;0.00;;;;;14.13;100.00;100291.34;5003258;28;45529;-74
2023/04/01 09:04:23;;;;;;;;;2.33;0.00;;;;;14.19;100.00;100293.03;4972821;22;45867;-77
2023/04/01 09:07:06;;;;;;;;;3.00;0.00;;;;;14.23;100.00;100280.63;4957716;28;45430;-76
2023/04/01 09:10:19;;;;;;;;;0.67;0.00;;;;;14.33;100.00;100291.09;4958571;28;45432;-77
2023/04/01 09:13:18;;;;;;;;;1.33;0.00;;;;;14.49;100.00;100283.84;4935976;28;46695;-77
2023/04/01 09:15:49;;;;;;;;;2.00;0.00;;;;;14.57;100.00;100279.28;4974496;28;45834;-76
2023/04/01 09:18:41;;;;;;;;;2.00;1.00;;;;;14.57;100.00;100273.09;4975189;28;45532;-79
2023/04/01 09:21:17;;;;;;;;;0.67;0.00;;;;;14.53;100.00;100269.59;4938411;28;46829;-78
2023/04/01 09:24:19;;;;;;;;;0.00;0.00;;;;;14.47;100.00;100279.41;4951259;28;46674;-77
2023/04/01 09:26:56;;;;;;;;;0.00;0.00;;;;;14.48;100.00;100295.34;4953536;28;45494;-78
2023/04/01 09:29:31;;;;;;;;;1.00;0.00;;;;;14.47;100.00;100290.94;4973869;28;45758;-78
2023/04/01 09:32:31;;;;;;;;;1.00;0.00;;;;;14.45;100.00;100305.13;4978973;28;45513;-84
2023/04/01 09:35:24;;;;;;;;;0.00;0.00;;;;;14.44;100.00;100287.44;4967448;28;46279;-80
2023/04/01 09:37:53;;;;;;;;;0.00;0.00;;;;;14.46;100.00;100293.59;4951005;28;45665;-79
2023/04/01 09:40:25;;;;;;;;;2.00;0.00;;;;;14.55;100.00;100285.53;4973059;28;45658;-77
2023/04/01 09:43:19;;;;;;;;;0.00;0.00;;;;;14.70;100.00;100301.28;4977950;28;45730;-76
2023/04/01 09:45:58;;;;;;;;;1.00;0.00;;;;;14.87;100.00;100303.66;4981860;28;46583;-77
2023/04/01 09:48:47;;;;;;;;;0.00;0.00;;;;;15.06;100.00;100301.59;4964199;28;45371;-75
2023/04/01 09:51:18;;;;;;;;;0.00;0.00;;;;;15.13;100.00;100305.94;4961958;28;45541;-76
2023/04/01 09:54:14;;;;;;;;;0.00;0.00;;;;;15.16;100.00;100289.91;4973965;28;45532;-77
2023/04/01 09:57:24;;;;;;;;;1.67;0.00;;;;;15.21;100.00;100298.69;4978598;28;47488;-78
2023/04/01 10:00:17;;;;;;;;;2.00;0.00;;;;;15.27;100.00;100319.84;4960580;28;45441;-76
2023/04/01 10:03:16;;;;;;;;;0.00;0.00;;;;;15.31;100.00;100336.66;4981249;28;45715;-78
2023/04/01 10:06:06;;;;;;;;;0.00;0.00;;;;;15.32;100.00;100312.69;4976776;28;45453;-77
2023/04/01 10:08:53;;;;;;;;;0.00;0.00;;;;;15.37;100.00;100310.81;4975399;28;46593;-78
2023/04/01 10:11:46;;;;;;;;;1.00;0.00;;;;;15.48;100.00;100315.97;4979755;28;45535;-75
2023/04/01 10:14:17;;;;;;;;;1.00;0.00;;;;;15.60;100.00;100317.53;4981071;28;45481;-77
2023/04/01 10:16:54;;;;;;;;;0.67;0.00;;;;;15.69;100.00;100322.72;4975017;28;45626;-78
2023/04/01 10:19:37;;;;;;;;;2.33;0.00;;;;;15.78;100.00;100322.56;4978473;28;46791;-77
2023/04/01 10:22:08;;;;;;;;;0.00;0.00;;;;;15.79;100.00;100320.78;4979565;28;45319;-79
2023/04/01 10:24:59;;;;;;;;;1.00;0.00;;;;;15.74;100.00;100309.34;4980317;28;45487;-78
2023/04/01 10:27:55;;;;;;;;;0.00;0.00;;;;;15.70;100.00;100309.38;4971496;28;45679;-77
2023/04/01 10:30:36;;;;;;;;;0.00;0.00;;;;;15.71;100.00;100310.25;4961174;28;46642;-77
2023/04/01 10:33:16;;;;;;;;;2.00;0.00;;;;;15.78;100.00;100325.22;4978669;28;45528;-78
2023/04/01 10:35:54;;;;;;;;;0.00;0.00;;;;;15.92;100.00;100317.84;4975388;28;45388;-77
2023/04/01 10:38:50;;;;;;;;;0.00;0.00;;;;;16.12;100.00;100309.47;4972705;28;46940;-79
2023/04/01 10:41:46;;;;;;;;;0.67;0.00;;;;;16.28;98.43;100304.69;4977934;28;46360;-76
2023/04/01 10:44:25;;;;;;;;;3.67;0.00;;;;;16.34;95.95;100309.91;4974608;28;46369;-74
2023/04/01 10:47:26;;;;;;;;;2.33;0.00;;;;;16.40;96.74;100300.91;4961665;28;45493;-77
2023/04/01 10:49:54;;;;;;;;;0.00;0.00;;;;;16.45;94.78;100302.53;4951866;28;45487;-75
2023/04/01 10:52:22;;;;;;;;;1.00;1.00;;;;;16.47;92.98;100299.88;4974682;28;46852;-77
2023/04/01 10:55:12;;;;;;;;;1.00;1.00;;;;;16.50;92.08;100307.78;4976971;28;45544;-75
2023/04/01 10:58:16;;;;;;;;;1.33;0.00;;;;;16.53;91.67;100299.75;4976889;28;45485;-77
2023/04/01 11:00:44;;;;;;;;;0.00;0.00;;;;;16.61;92.90;100307.53;4912970;28;45436;-75
2023/04/01 11:03:28;;;;;;;;;0.00;0.00;;;;;16.67;91.75;100296.75;4905637;28;46968;-74
2023/04/01 11:06:06;;;;;;;;;0.00;0.00;;;;;16.76;90.05;100312.56;4934004;28;45495;-72
2023/04/01 11:09:02;;;;;;;;;1.00;0.00;;;;;16.85;88.18;100333.72;4976027;28;45524;-73
2023/04/01 11:11:57;;;;;;;;;0.00;0.00;;;;;16.92;86.41;100300.63;4975749;28;45403;-73
2023/04/01 11:14:29;;;;;;;;;1.00;0.00;;;;;16.96;86.36;100307.66;4969754;28;47479;-72
2023/04/01 11:17:00;;;;;;;;;0.00;0.00;;;;;17.02;86.55;100318.19;4973104;28;45528;-72
2023/04/01 11:20:06;;;;;;;;;1.00;0.00;;;;;17.13;86.55;100304.59;4974801;28;46583;-70
2023/04/01 11:22:50;;;;;;;;;1.00;0.00;;;;;17.20;85.04;100300.84;4958566;28;45601;-71
2023/04/01 11:25:52;;;;;;;;;0.00;0.00;;;;;17.10;85.04;100315.34;4975436;28;46520;-72
2023/04/01 11:28:51;;;;;;;;;0.00;0.00;;;;;17.03;85.50;100297.72;4944070;28;46902;-72
2023/04/01 11:31:23;;;;;;;;;0.00;0.00;;;;;17.00;85.82;100292.47;4976254;28;45503;-73
2023/04/01 11:33:57;;;;;;;;;0.00;0.00;;;;;16.99;85.98;100286.28;4976696;28;45659;-72
2023/04/01 11:36:44;;;;;;;;;0.00;0.00;;;;;17.03;86.61;100292.38;4960119;28;46553;-72
2023/04/01 11:39:34;;;;;;;;;2.00;0.33;;;;;17.06;85.75;100303.00;4975058;28;45516;-73
2023/04/01 11:42:35;;;;;;;;;0.00;0.00;;;;;16.94;85.68;100303.28;4976956;28;45390;-73
2023/04/01 11:45:18;;;;;;;;;3.00;0.00;;;;;16.80;86.08;100297.41;4927553;28;45431;-73
2023/04/01 11:47:59;;;;;;;;;2.67;0.00;;;;;16.64;85.64;100316.38;4976379;28;46559;-73
2023/04/01 11:51:06;;;;;;;;;1.00;0.00;;;;;16.49;86.10;100316.69;4957595;28;45528;-72
2023/04/01 11:53:58;;;;;;;;;0.00;0.00;;;;;16.43;86.59;100316.84;4974307;28;45420;-72
2023/04/01 11:56:48;;;;;;;;;0.00;0.00;;;;;16.43;86.64;100317.72;4943640;28;45626;-73